Time;durP1;ratioP1;P1;durP2;ratioP2;P2;SDS_P1;SDS_P2;PMS_P1;PMS_P2;Temp;Humidity;BMP_temperature;BMP_pressure;BME280_temperature;BME280_humidity;BME280_pressure;Samples;Min_cycle;Max_cycle;Signal;HPM_P1;HPM_P2
2023/10/12 00:02:00;;;;;;;12.07;2.70;;;;;;;;;;4967832;28;22073;-80
2023/10/12 00:04:36;;;;;;;11.02;2.70;;;;;;;;;;4968297;28;20070;-80
2023/10/12 00:07:15;;;;;;;9.80;3.20;;;;;;;;;;4972506;28;20046;-80
2023/10/12 00:09:47;;;;;;;12.73;2.47;;;;;;;;;;4969940;28;20066;-80
2023/10/12 00:12:14;;;;;;;12.97;3.13;;;;;;;;;;4968598;28;20121;-80
2023/10/12 00:14:41;;;;;;;9.95;2.80;;;;;;;;;;5000530;28;20050;-80
2023/10/12 00:17:07;;;;;;;10.13;2.83;;;;;;;;;;4967425;28;20055;-80
2023/10/12 00:19:34;;;;;;;13.48;3.25;;;;;;;;;;4966087;28;20039;-80
2023/10/12 00:22:01;;;;;;;12.25;2.53;;;;;;;;;;4965241;28;20043;-80
2023/10/12 00:24:27;;;;;;;11.82;2.97;;;;;;;;;;4967782;28;20117;-80
2023/10/12 00:26:53;;;;;;;17.33;3.03;;;;;;;;;;4968549;28;20528;-81
2023/10/12 00:29:21;;;;;;;8.35;2.65;;;;;;;;;;4964862;28;20067;-80
2023/10/12 00:31:49;;;;;;;8.43;2.50;;;;;;;;;;4971628;28;20054;-80
2023/10/12 00:34:16;;;;;;;9.68;2.38;;;;;;;;;;4966870;28;20050;-80
2023/10/12 00:36:45;;;;;;;10.95;2.80;;;;;;;;;;4970066;28;20054;-80
2023/10/12 00:39:11;;;;;;;8.18;2.90;;;;;;;;;;4967660;28;20134;-80
2023/10/12 00:41:44;;;;;;;7.50;2.63;;;;;;;;;;4964583;28;20035;-80
2023/10/12 00:44:11;;;;;;;12.93;3.00;;;;;;;;;;4951879;28;20054;-80
2023/10/12 00:51:40;;;;;;;12.40;3.05;;;;;;;;;;4963942;28;20495;-81
2023/10/12 00:54:10;;;;;;;8.48;2.90;;;;;;;;;;4968354;28;20050;-81
2023/10/12 00:56:36;;;;;;;12.10;2.85;;;;;;;;;;4988626;28;20081;-81
2023/10/12 00:59:03;;;;;;;9.85;3.10;;;;;;;;;;4975635;28;20073;-81
2023/10/12 01:01:32;;;;;;;12.75;2.53;;;;;;;;;;4972019;28;20415;-81
2023/10/12 01:03:58;;;;;;;10.10;2.78;;;;;;;;;;5000699;28;20043;-81
2023/10/12 01:08:57;;;;;;;9.25;2.83;;;;;;;;;;5004009;28;20133;-81
2023/10/12 01:11:26;;;;;;;10.73;2.65;;;;;;;;;;4972561;28;20553;-81
2023/10/12 01:16:25;;;;;;;13.07;2.63;;;;;;;;;;4971108;28;20061;-81
2023/10/12 01:19:01;;;;;;;9.75;2.60;;;;;;;;;;4973818;28;20046;-81
2023/10/12 01:21:28;;;;;;;10.60;2.97;;;;;;;;;;5001788;28;20038;-81
2023/10/12 01:24:01;;;;;;;11.20;2.72;;;;;;;;;;4968753;28;20090;-81
2023/10/12 01:26:27;;;;;;;14.82;2.97;;;;;;;;;;4972520;28;20042;-81
2023/10/12 01:28:55;;;;;;;7.70;2.13;;;;;;;;;;4970952;28;20050;-81
2023/10/12 01:31:28;;;;;;;14.15;3.20;;;;;;;;;;4968707;28;20113;-81
2023/10/12 01:33:54;;;;;;;7.78;2.70;;;;;;;;;;4972221;28;20047;-82
2023/10/12 01:36:21;;;;;;;10.93;2.78;;;;;;;;;;4971694;28;21926;-81
2023/10/12 01:38:47;;;;;;;14.48;2.70;;;;;;;;;;4973949;28;20467;-81
2023/10/12 01:41:24;;;;;;;10.05;2.38;;;;;;;;;;4971013;28;20105;-81
2023/10/12 01:43:50;;;;;;;7.70;2.20;;;;;;;;;;4972388;28;20053;-81
2023/10/12 01:46:21;;;;;;;11.07;2.58;;;;;;;;;;4971736;28;20471;-82
2023/10/12 01:48:49;;;;;;;10.43;2.80;;;;;;;;;;4971149;28;20051;-81
2023/10/12 01:51:24;;;;;;;8.10;2.50;;;;;;;;;;4972144;28;20059;-81
2023/10/12 01:53:51;;;;;;;12.32;2.55;;;;;;;;;;4969389;28;20051;-81
2023/10/12 01:56:17;;;;;;;7.38;2.20;;;;;;;;;;4968438;28;20061;-81
2023/10/12 01:58:43;;;;;;;10.73;2.50;;;;;;;;;;4970911;28;20046;-82
2023/10/12 02:01:18;;;;;;;12.00;2.55;;;;;;;;;;4968250;28;20065;-82
2023/10/12 02:03:44;;;;;;;9.20;2.47;;;;;;;;;;4966347;28;20490;-82
2023/10/12 02:06:14;;;;;;;12.43;3.50;;;;;;;;;;4970915;28;20380;-81
2023/10/12 02:08:45;;;;;;;8.68;2.80;;;;;;;;;;4970256;28;20034;-82
2023/10/12 02:11:12;;;;;;;11.15;2.65;;;;;;;;;;4969634;28;20582;-82
2023/10/12 02:13:41;;;;;;;9.25;2.65;;;;;;;;;;4972217;28;20058;-82
2023/10/12 02:16:07;;;;;;;12.93;2.60;;;;;;;;;;4969204;28;20098;-82
2023/10/12 02:18:34;;;;;;;6.95;2.53;;;;;;;;;;4972393;28;20102;-81
2023/10/12 02:23:54;;;;;;;10.53;2.63;;;;;;;;;;4969692;28;20058;-82
2023/10/12 02:26:35;;;;;;;9.00;2.47;;;;;;;;;;4970048;28;20289;-82
2023/10/12 02:34:17;;;;;;;9.52;2.60;;;;;;;;;;4964622;28;20102;-83
2023/10/12 02:39:37;;;;;;;10.45;2.63;;;;;;;;;;4968066;28;20051;-82
2023/10/12 02:42:38;;;;;;;8.15;2.38;;;;;;;;;;4964798;28;20417;-82
2023/10/12 02:47:23;;;;;;;12.73;2.90;;;;;;;;;;4967282;28;20051;-82
2023/10/12 02:50:21;;;;;;;10.93;2.95;;;;;;;;;;4999223;28;20077;-83
2023/10/12 02:52:48;;;;;;;10.82;2.78;;;;;;;;;;4967072;28;20085;-82
2023/10/12 02:57:54;;;;;;;9.75;2.88;;;;;;;;;;4968273;28;20065;-82
2023/10/12 03:00:43;;;;;;;11.45;2.58;;;;;;;;;;4967752;28;20064;-82
2023/10/12 03:03:20;;;;;;;6.68;2.13;;;;;;;;;;4966269;28;20059;-82
2023/10/12 03:05:47;;;;;;;12.05;2.58;;;;;;;;;;4981211;28;20065;-82
2023/10/12 03:08:16;;;;;;;9.77;2.70;;;;;;;;;;4970879;28;21599;-82
2023/10/12 03:13:42;;;;;;;10.20;2.28;;;;;;;;;;4965341;28;20074;-82
2023/10/12 03:16:34;;;;;;;13.18;2.78;;;;;;;;;;4970712;28;20042;-82
2023/10/12 03:19:00;;;;;;;12.20;2.80;;;;;;;;;;4970948;28;20407;-83
2023/10/12 03:21:33;;;;;;;11.57;3.38;;;;;;;;;;4968437;28;20082;-82
2023/10/12 03:24:02;;;;;;;5.72;2.30;;;;;;;;;;4973223;28;20050;-82
2023/10/12 03:26:29;;;;;;;13.13;2.55;;;;;;;;;;4970832;28;20043;-82
2023/10/12 03:37:13;;;;;;;10.90;2.28;;;;;;;;;;4942350;28;20117;-82
2023/10/12 03:47:29;;;;;;;7.28;2.35;;;;;;;;;;4965059;28;20439;-82
2023/10/12 03:49:58;;;;;;;11.00;3.13;;;;;;;;;;4967658;28;20066;-82
2023/10/12 03:52:30;;;;;;;7.15;2.50;;;;;;;;;;4967007;28;20049;-82
2023/10/12 04:02:45;;;;;;;6.53;2.95;;;;;;;;;;4970843;28;20391;-82
2023/10/12 04:05:21;;;;;;;8.50;2.40;;;;;;;;;;4967408;28;20051;-81
2023/10/12 04:13:09;;;;;;;9.05;2.20;;;;;;;;;;4970422;28;20047;-82
2023/10/12 04:16:05;;;;;;;9.85;3.13;;;;;;;;;;4966028;28;20039;-82
2023/10/12 04:18:28;;;;;;;8.48;2.28;;;;;;;;;;4969505;28;20158;-82
2023/10/12 04:20:58;;;;;;;9.40;2.42;;;;;;;;;;4998720;28;20047;-82
2023/10/12 04:28:43;;;;;;;13.82;2.72;;;;;;;;;;4974596;28;20097;-83
2023/10/12 04:33:43;;;;;;;14.27;2.75;;;;;;;;;;4976508;28;20141;-82
2023/10/12 04:43:40;;;;;;;9.38;2.20;;;;;;;;;;4970673;28;20150;-82
2023/10/12 04:48:41;;;;;;;9.73;2.38;;;;;;;;;;4986390;28;20705;-83
2023/10/12 04:51:07;;;;;;;10.60;2.65;;;;;;;;;;4975253;28;20050;-83
2023/10/12 04:56:18;;;;;;;12.60;2.70;;;;;;;;;;4969805;28;20161;-83
2023/10/12 04:58:57;;;;;;;7.55;2.53;;;;;;;;;;4970907;28;20459;-82
2023/10/12 05:01:40;;;;;;;10.73;2.50;;;;;;;;;;4970359;28;20142;-82
2023/10/12 05:04:09;;;;;;;11.13;2.72;;;;;;;;;;4971568;28;20061;-83
2023/10/12 05:07:10;;;;;;;8.65;2.42;;;;;;;;;;4972970;28;20055;-82
2023/10/12 05:09:33;;;;;;;12.05;2.53;;;;;;;;;;4972460;28;20494;-82
2023/10/12 05:11:59;;;;;;;6.63;2.42;;;;;;;;;;4971480;28;20047;-82
2023/10/12 05:14:25;;;;;;;8.23;2.72;;;;;;;;;;4974239;28;20166;-82
2023/10/12 05:16:51;;;;;;;7.43;2.25;;;;;;;;;;4969509;28;20050;-82
2023/10/12 05:19:17;;;;;;;14.18;2.50;;;;;;;;;;4973123;28;20058;-82
2023/10/12 05:21:43;;;;;;;7.80;2.28;;;;;;;;;;4973432;28;20486;-83
2023/10/12 05:24:11;;;;;;;8.48;2.15;;;;;;;;;;4971757;28;20129;-82
2023/10/12 05:26:37;;;;;;;7.78;2.28;;;;;;;;;;4985341;28;20443;-83
2023/10/12 05:29:28;;;;;;;8.48;2.78;;;;;;;;;;4972360;28;20394;-82
2023/10/12 05:32:06;;;;;;;11.93;2.97;;;;;;;;;;4968363;28;20047;-82
2023/10/12 05:34:44;;;;;;;8.43;2.42;;;;;;;;;;4974984;28;20046;-83
2023/10/12 05:39:55;;;;;;;9.52;2.42;;;;;;;;;;4982695;28;20065;-83
2023/10/12 05:42:24;;;;;;;8.90;2.10;;;;;;;;;;4967238;28;20046;-82
2023/10/12 05:44:51;;;;;;;7.95;2.40;;;;;;;;;;4972725;28;20142;-83
2023/10/12 05:47:18;;;;;;;10.15;2.35;;;;;;;;;;4962905;28;20136;-83
2023/10/12 05:49:45;;;;;;;9.30;2.38;;;;;;;;;;4970536;28;20475;-82
2023/10/12 05:52:12;;;;;;;9.05;2.72;;;;;;;;;;4969746;28;20050;-83
2023/10/12 05:54:38;;;;;;;8.88;2.10;;;;;;;;;;4971195;28;20058;-83
2023/10/12 05:57:17;;;;;;;11.20;2.80;;;;;;;;;;4975246;28;20124;-83
2023/10/12 05:59:44;;;;;;;11.57;2.70;;;;;;;;;;4968535;28;20081;-83
2023/10/12 06:02:10;;;;;;;8.20;2.40;;;;;;;;;;4976866;28;20093;-83
2023/10/12 06:04:36;;;;;;;7.35;2.58;;;;;;;;;;4983715;28;20050;-83
2023/10/12 06:07:03;;;;;;;11.60;2.40;;;;;;;;;;4976187;28;20089;-82
2023/10/12 06:09:35;;;;;;;9.32;2.40;;;;;;;;;;4977236;28;20093;-83
2023/10/12 06:12:10;;;;;;;10.10;2.70;;;;;;;;;;4972354;28;20057;-84
2023/10/12 06:14:38;;;;;;;9.88;2.53;;;;;;;;;;4969443;28;20308;-84
2023/10/12 06:17:15;;;;;;;10.23;2.75;;;;;;;;;;4974987;28;20082;-84
2023/10/12 06:19:44;;;;;;;7.20;2.17;;;;;;;;;;4977854;28;20482;-85
2023/10/12 06:22:25;;;;;;;9.88;2.80;;;;;;;;;;4969562;28;20069;-83
2023/10/12 06:24:53;;;;;;;12.60;2.60;;;;;;;;;;4978840;28;20054;-84
2023/10/12 06:29:46;;;;;;;9.13;2.88;;;;;;;;;;4976183;28;20050;-84
2023/10/12 06:38:36;;;;;;;6.78;3.20;;;;;;;;;;4966729;28;20487;-83
2023/10/12 06:45:47;;;;;;;9.68;2.33;;;;;;;;;;4984563;28;20098;-83
2023/10/12 06:51:03;;;;;;;12.73;2.78;;;;;;;;;;4985375;28;20062;-84
2023/10/12 06:53:34;;;;;;;12.98;2.90;;;;;;;;;;4969189;28;20077;-85
2023/10/12 06:56:24;;;;;;;8.60;2.83;;;;;;;;;;4978423;28;20069;-85
2023/10/12 07:01:51;;;;;;;10.82;3.97;;;;;;;;;;4965381;28;20047;-84
2023/10/12 07:04:20;;;;;;;11.02;2.47;;;;;;;;;;4967996;28;20058;-84
2023/10/12 07:06:56;;;;;;;14.07;3.80;;;;;;;;;;4974025;28;20049;-86
2023/10/12 07:09:46;;;;;;;10.02;3.30;;;;;;;;;;5000700;28;20526;-85
2023/10/12 07:12:13;;;;;;;8.18;2.55;;;;;;;;;;4980787;28;20050;-85
2023/10/12 07:14:46;;;;;;;12.25;2.85;;;;;;;;;;4999630;28;20137;-84
2023/10/12 07:17:13;;;;;;;8.38;2.90;;;;;;;;;;4975922;28;20102;-78
2023/10/12 07:19:40;;;;;;;12.00;3.00;;;;;;;;;;4961472;28;20065;-81
2023/10/12 07:22:15;;;;;;;11.45;2.65;;;;;;;;;;4991117;28;20117;-80
2023/10/12 07:24:42;;;;;;;12.82;2.95;;;;;;;;;;4996383;28;20043;-84
2023/10/12 07:27:12;;;;;;;13.75;2.72;;;;;;;;;;4977783;28;20053;-81
2023/10/12 07:29:44;;;;;;;9.77;2.67;;;;;;;;;;4972434;28;20046;-80
2023/10/12 07:34:57;;;;;;;7.15;2.67;;;;;;;;;;4986426;28;20142;-84
2023/10/12 07:37:24;;;;;;;8.88;2.70;;;;;;;;;;4988197;28;20050;-84
2023/10/12 07:39:51;;;;;;;10.35;2.55;;;;;;;;;;4959628;28;20368;-84
2023/10/12 07:42:27;;;;;;;9.35;2.38;;;;;;;;;;4976468;28;20050;-84
2023/10/12 07:45:05;;;;;;;9.27;2.10;;;;;;;;;;4971530;28;20472;-84
2023/10/12 07:47:32;;;;;;;13.98;2.65;;;;;;;;;;4996911;28;20051;-85
2023/10/12 07:50:07;;;;;;;10.35;3.13;;;;;;;;;;4971347;28;20054;-86
2023/10/12 07:52:48;;;;;;;5.72;2.42;;;;;;;;;;4999686;28;20079;-84
2023/10/12 07:55:18;;;;;;;11.10;3.25;;;;;;;;;;4968988;28;20392;-83
2023/10/12 07:57:45;;;;;;;11.98;2.90;;;;;;;;;;4966023;28;20466;-84
2023/10/12 08:05:24;;;;;;;9.00;2.42;;;;;;;;;;4972556;28;20141;-85
2023/10/12 08:13:06;;;;;;;12.65;2.60;;;;;;;;;;4963444;28;20564;-85
2023/10/12 08:21:02;;;;;;;11.23;2.40;;;;;;;;;;4983116;28;20049;-86
2023/10/12 08:23:28;;;;;;;11.40;2.75;;;;;;;;;;4976295;28;20075;-85
2023/10/12 08:25:57;;;;;;;12.77;4.10;;;;;;;;;;4965559;28;20046;-86
2023/10/12 08:28:26;;;;;;;9.52;3.00;;;;;;;;;;4981573;28;20050;-86
2023/10/12 08:31:00;;;;;;;8.68;2.83;;;;;;;;;;4972206;28;20125;-85
2023/10/12 08:38:40;;;;;;;10.10;2.95;;;;;;;;;;4971297;28;20082;-85
2023/10/12 08:41:37;;;;;;;11.75;2.97;;;;;;;;;;4979837;28;20080;-85
2023/10/12 08:44:05;;;;;;;12.85;2.90;;;;;;;;;;4971234;28;20046;-85
2023/10/12 08:47:09;;;;;;;10.18;2.60;;;;;;;;;;4980101;28;20058;-85
2023/10/12 08:52:05;;;;;;;10.13;2.75;;;;;;;;;;4985399;28;20086;-85
2023/10/12 08:54:37;;;;;;;9.15;2.70;;;;;;;;;;4985482;28;20050;-85
2023/10/12 08:57:09;;;;;;;11.93;2.67;;;;;;;;;;4978940;28;20126;-85
2023/10/12 08:59:38;;;;;;;9.52;2.83;;;;;;;;;;4987682;28;20127;-82
2023/10/12 09:02:18;;;;;;;10.70;2.80;;;;;;;;;;4969267;28;20050;-80
2023/10/12 09:04:46;;;;;;;12.73;3.22;;;;;;;;;;4971480;28;20126;-80
2023/10/12 09:07:16;;;;;;;11.45;2.80;;;;;;;;;;4972242;28;20050;-81
2023/10/12 09:10:02;;;;;;;40.65;5.50;;;;;;;;;;4969594;28;20436;-80
2023/10/12 09:12:29;;;;;;;14.00;3.55;;;;;;;;;;4975658;28;20054;-79
2023/10/12 09:14:55;;;;;;;12.63;2.92;;;;;;;;;;4970765;28;20049;-79
2023/10/12 09:17:27;;;;;;;8.48;2.75;;;;;;;;;;4974425;28;20050;-80
2023/10/12 09:20:12;;;;;;;6.65;2.70;;;;;;;;;;4960711;28;20122;-79
2023/10/12 09:22:38;;;;;;;14.55;3.35;;;;;;;;;;4973524;28;20054;-80
2023/10/12 09:25:05;;;;;;;11.15;3.05;;;;;;;;;;4974882;28;20082;-80
2023/10/12 09:27:48;;;;;;;9.75;2.65;;;;;;;;;;4973629;28;20487;-80
2023/10/12 09:30:25;;;;;;;10.05;2.65;;;;;;;;;;4975250;28;20051;-80
2023/10/12 09:32:57;;;;;;;9.20;2.33;;;;;;;;;;4974670;28;20054;-80
2023/10/12 09:35:33;;;;;;;11.10;2.70;;;;;;;;;;4975286;28;20066;-80
2023/10/12 09:38:01;;;;;;;12.20;2.75;;;;;;;;;;4974355;28;20129;-80
2023/10/12 09:40:29;;;;;;;14.93;2.95;;;;;;;;;;4975689;28;20119;-80
2023/10/12 09:43:06;;;;;;;10.05;3.25;;;;;;;;;;4972913;28;20058;-80
2023/10/12 09:45:39;;;;;;;11.50;2.80;;;;;;;;;;4973910;28;20086;-80
2023/10/12 09:48:06;;;;;;;7.85;2.80;;;;;;;;;;4975950;28;20062;-80
2023/10/12 09:50:34;;;;;;;11.05;2.53;;;;;;;;;;4971262;28;20051;-81
2023/10/12 09:53:21;;;;;;;7.50;2.30;;;;;;;;;;4971280;28;20109;-80
2023/10/12 09:56:03;;;;;;;9.85;2.55;;;;;;;;;;4983005;28;20128;-80
2023/10/12 09:58:32;;;;;;;4.53;2.40;;;;;;;;;;4994685;28;20150;-80
2023/10/12 10:01:01;;;;;;;10.40;2.63;;;;;;;;;;4982846;28;20052;-80
2023/10/12 10:03:36;;;;;;;10.93;2.67;;;;;;;;;;4985347;28;20046;-80
2023/10/12 10:06:10;;;;;;;11.23;2.60;;;;;;;;;;4987409;28;20043;-80
2023/10/12 10:08:44;;;;;;;10.77;2.67;;;;;;;;;;4961090;28;20047;-80
2023/10/12 10:11:11;;;;;;;10.32;2.78;;;;;;;;;;4966138;28;20059;-82
2023/10/12 10:13:46;;;;;;;9.77;2.38;;;;;;;;;;4965736;28;20600;-83
2023/10/12 10:16:14;;;;;;;9.85;2.50;;;;;;;;;;4974313;28;20418;-83
2023/10/12 10:18:56;;;;;;;11.65;2.60;;;;;;;;;;4971784;28;20450;-83
2023/10/12 10:21:30;;;;;;;7.43;2.13;;;;;;;;;;4980125;28;20062;-83
2023/10/12 10:23:57;;;;;;;11.07;2.88;;;;;;;;;;4970065;28;20296;-83
2023/10/12 10:29:17;;;;;;;9.98;2.78;;;;;;;;;;4973832;28;20054;-83
2023/10/12 10:31:43;;;;;;;10.18;2.55;;;;;;;;;;4985624;28;20101;-83
2023/10/12 10:34:12;;;;;;;10.35;2.80;;;;;;;;;;4973919;28;20521;-83
2023/10/12 10:36:38;;;;;;;9.80;2.55;;;;;;;;;;4972792;28;20046;-83
2023/10/12 10:39:51;;;;;;;13.95;2.80;;;;;;;;;;4978382;28;20052;-83
2023/10/12 10:44:22;;;;;;;8.63;2.47;;;;;;;;;;4972972;28;20057;-83
2023/10/12 10:46:49;;;;;;;9.20;2.60;;;;;;;;;;4975329;28;20073;-83
2023/10/12 10:49:16;;;;;;;8.65;2.47;;;;;;;;;;4967571;28;20055;-83
2023/10/12 10:51:55;;;;;;;9.10;2.60;;;;;;;;;;4969892;28;20046;-83
2023/10/12 10:54:21;;;;;;;5.20;2.40;;;;;;;;;;4970082;28;20047;-82
2023/10/12 10:56:53;;;;;;;8.52;2.40;;;;;;;;;;4975245;28;20054;-80
2023/10/12 10:59:19;;;;;;;9.65;2.47;;;;;;;;;;4971065;28;20046;-80
2023/10/12 11:01:49;;;;;;;9.50;2.60;;;;;;;;;;4985136;28;20050;-80
2023/10/12 11:07:04;;;;;;;10.35;2.30;;;;;;;;;;4973168;28;20046;-80
2023/10/12 11:12:22;;;;;;;5.88;2.40;;;;;;;;;;4971590;28;20109;-81
2023/10/12 11:14:52;;;;;;;9.07;2.60;;;;;;;;;;4971357;28;20042;-82
2023/10/12 11:17:20;;;;;;;10.07;2.67;;;;;;;;;;4970497;28;20039;-81
2023/10/12 11:19:46;;;;;;;9.68;2.72;;;;;;;;;;4985013;28;20056;-81
2023/10/12 11:22:13;;;;;;;7.50;2.10;;;;;;;;;;4971683;28;20050;-79
2023/10/12 11:24:45;;;;;;;11.38;2.90;;;;;;;;;;4972101;28;20045;-80
2023/10/12 11:27:11;;;;;;;9.65;2.58;;;;;;;;;;4969053;28;20498;-79
2023/10/12 11:29:50;;;;;;;11.27;2.58;;;;;;;;;;4960579;28;20035;-76
2023/10/12 11:32:16;;;;;;;20.45;3.42;;;;;;;;;;4968294;28;20130;-79
2023/10/12 11:34:44;;;;;;;10.23;2.63;;;;;;;;;;4971500;28;20042;-82
2023/10/12 11:37:13;;;;;;;10.75;2.45;;;;;;;;;;4972458;28;20055;-82
2023/10/12 11:39:42;;;;;;;9.35;2.30;;;;;;;;;;4969748;28;20054;-82
2023/10/12 11:42:12;;;;;;;16.80;2.70;;;;;;;;;;4972393;28;20137;-82
2023/10/12 11:44:42;;;;;;;10.65;2.90;;;;;;;;;;4972170;28;20050;-82
2023/10/12 11:47:08;;;;;;;8.85;2.45;;;;;;;;;;4966311;28;20054;-82
2023/10/12 11:49:48;;;;;;;9.57;2.67;;;;;;;;;;4970792;28;20121;-82
2023/10/12 11:52:21;;;;;;;9.63;2.70;;;;;;;;;;4970840;28;20053;-82
2023/10/12 11:54:48;;;;;;;10.07;2.42;;;;;;;;;;4978590;28;20038;-82
2023/10/12 11:57:14;;;;;;;7.57;2.88;;;;;;;;;;4972798;28;20042;-82
2023/10/12 11:59:42;;;;;;;12.00;2.92;;;;;;;;;;4974555;28;20771;-83
2023/10/12 12:02:09;;;;;;;9.70;2.65;;;;;;;;;;4977647;28;20050;-80
2023/10/12 12:04:43;;;;;;;10.70;2.85;;;;;;;;;;4969701;28;20473;-80
2023/10/12 12:07:10;;;;;;;11.32;2.53;;;;;;;;;;4974035;28;20057;-79
2023/10/12 12:09:40;;;;;;;9.65;3.10;;;;;;;;;;4967664;28;20042;-80
2023/10/12 12:12:12;;;;;;;7.60;2.50;;;;;;;;;;4967592;28;20129;-78
2023/10/12 12:14:38;;;;;;;10.57;3.15;;;;;;;;;;4971361;28;20105;-78
2023/10/12 12:17:04;;;;;;;8.88;3.38;;;;;;;;;;4970632;28;20078;-82
2023/10/12 12:19:33;;;;;;;8.80;2.35;;;;;;;;;;4969330;28;20081;-82
2023/10/12 12:21:59;;;;;;;12.68;2.70;;;;;;;;;;4973283;28;20443;-84
2023/10/12 12:24:29;;;;;;;8.35;2.40;;;;;;;;;;4965102;28;20102;-82
2023/10/12 12:26:55;;;;;;;6.72;2.55;;;;;;;;;;4967288;28;20058;-82
2023/10/12 12:29:25;;;;;;;13.90;2.67;;;;;;;;;;4971252;28;20047;-83
2023/10/12 12:31:51;;;;;;;8.27;2.70;;;;;;;;;;4984573;28;21090;-82
2023/10/12 12:37:05;;;;;;;6.53;2.40;;;;;;;;;;4959732;28;20121;-83
2023/10/12 12:39:36;;;;;;;9.05;2.30;;;;;;;;;;4969347;28;20411;-82
2023/10/12 12:42:04;;;;;;;31.42;5.18;;;;;;;;;;4972344;28;20072;-82
2023/10/12 12:44:30;;;;;;;16.25;3.83;;;;;;;;;;4964862;28;20488;-83
2023/10/12 12:46:56;;;;;;;10.43;2.65;;;;;;;;;;4961743;28;20043;-83
2023/10/12 12:49:24;;;;;;;10.35;2.90;;;;;;;;;;4985695;28;20070;-82
2023/10/12 12:51:50;;;;;;;7.95;2.80;;;;;;;;;;4972622;28;20089;-83
2023/10/12 12:54:16;;;;;;;10.43;2.45;;;;;;;;;;4973065;28;20051;-82
2023/10/12 12:56:42;;;;;;;9.27;2.78;;;;;;;;;;4970007;28;20058;-82
2023/10/12 12:59:10;;;;;;;10.02;2.50;;;;;;;;;;4976608;28;20162;-83
2023/10/12 13:01:39;;;;;;;6.45;2.92;;;;;;;;;;4969243;28;20403;-82
2023/10/12 13:04:05;;;;;;;10.98;2.53;;;;;;;;;;4969750;28;20049;-82
2023/10/12 13:06:33;;;;;;;7.97;2.63;;;;;;;;;;4975275;28;20057;-82
2023/10/12 13:09:01;;;;;;;8.38;2.75;;;;;;;;;;4971824;28;20475;-84
2023/10/12 13:11:27;;;;;;;14.45;2.90;;;;;;;;;;4972448;28;20065;-85
2023/10/12 13:13:53;;;;;;;9.43;2.70;;;;;;;;;;4974206;28;20042;-82
2023/10/12 13:16:19;;;;;;;11.05;2.60;;;;;;;;;;4973901;28;20046;-82
2023/10/12 13:18:48;;;;;;;11.10;3.33;;;;;;;;;;4969569;28;20787;-81
2023/10/12 13:21:15;;;;;;;15.38;2.55;;;;;;;;;;4972672;28;20047;-80
2023/10/12 13:23:42;;;;;;;8.45;2.38;;;;;;;;;;4977425;28;20494;-79
2023/10/12 13:26:12;;;;;;;14.13;2.83;;;;;;;;;;4976747;28;20046;-84
2023/10/12 13:28:40;;;;;;;8.55;2.58;;;;;;;;;;4976311;28;20529;-83
2023/10/12 13:31:10;;;;;;;10.07;2.80;;;;;;;;;;4970781;28;20126;-81
2023/10/12 13:33:37;;;;;;;12.52;2.80;;;;;;;;;;4973152;28;20054;-81
2023/10/12 13:36:04;;;;;;;13.95;2.95;;;;;;;;;;4962583;28;20435;-80
2023/10/12 13:38:33;;;;;;;8.57;2.33;;;;;;;;;;4973621;28;20043;-81
2023/10/12 13:41:01;;;;;;;12.60;2.58;;;;;;;;;;4976066;28;20046;-83
2023/10/12 13:43:30;;;;;;;8.38;2.65;;;;;;;;;;4974534;28;20035;-82
2023/10/12 13:45:56;;;;;;;8.88;2.63;;;;;;;;;;4976840;28;20049;-79
2023/10/12 13:48:30;;;;;;;9.93;3.10;;;;;;;;;;4973247;28;20063;-84
2023/10/12 13:53:41;;;;;;;10.18;2.83;;;;;;;;;;4971222;28;20046;-81
2023/10/12 13:56:08;;;;;;;10.30;2.83;;;;;;;;;;4972931;28;20061;-82
2023/10/12 13:58:38;;;;;;;11.35;3.15;;;;;;;;;;5005283;28;20042;-82
2023/10/12 14:01:05;;;;;;;16.67;2.78;;;;;;;;;;4974659;28;20034;-82
2023/10/12 14:03:34;;;;;;;8.98;2.83;;;;;;;;;;4971917;28;20054;-81
2023/10/12 14:06:01;;;;;;;9.20;2.53;;;;;;;;;;4971418;28;20043;-82
2023/10/12 14:08:28;;;;;;;8.55;2.65;;;;;;;;;;4965182;28;20083;-84
2023/10/12 14:10:59;;;;;;;10.15;2.83;;;;;;;;;;4973128;28;20043;-77
2023/10/12 14:13:28;;;;;;;7.25;2.42;;;;;;;;;;4967010;28;20065;-80
2023/10/12 14:15:54;;;;;;;8.52;2.65;;;;;;;;;;4965110;28;20263;-79
2023/10/12 14:18:20;;;;;;;11.50;2.88;;;;;;;;;;4971347;28;20398;-85
2023/10/12 14:20:47;;;;;;;9.30;2.45;;;;;;;;;;4971845;28;20137;-86
2023/10/12 14:23:15;;;;;;;6.25;2.60;;;;;;;;;;4970448;28;20129;-85
2023/10/12 14:25:42;;;;;;;11.50;2.78;;;;;;;;;;4986913;28;20047;-86
2023/10/12 14:28:16;;;;;;;11.38;2.80;;;;;;;;;;4972110;28;20133;-86
2023/10/12 14:30:42;;;;;;;8.65;2.70;;;;;;;;;;4971781;28;20070;-87
2023/10/12 14:33:08;;;;;;;8.30;2.60;;;;;;;;;;4970573;28;20134;-86
2023/10/12 14:35:35;;;;;;;11.38;2.90;;;;;;;;;;4971040;28;20034;-86
2023/10/12 14:38:02;;;;;;;9.25;2.67;;;;;;;;;;4971078;28;20047;-86
2023/10/12 14:40:32;;;;;;;10.05;3.10;;;;;;;;;;4971042;28;20050;-86
2023/10/12 14:43:05;;;;;;;8.45;2.70;;;;;;;;;;4971487;28;20049;-86
2023/10/12 14:45:37;;;;;;;8.65;2.85;;;;;;;;;;4973082;28;20051;-86
2023/10/12 14:48:09;;;;;;;9.73;2.97;;;;;;;;;;4972797;28;20093;-86
2023/10/12 14:50:47;;;;;;;9.90;2.70;;;;;;;;;;4970064;28;20051;-86
2023/10/12 14:53:16;;;;;;;10.65;3.17;;;;;;;;;;4970387;28;20060;-87
2023/10/12 14:55:43;;;;;;;8.65;2.85;;;;;;;;;;4974306;28;20057;-86
2023/10/12 14:58:09;;;;;;;10.20;2.95;;;;;;;;;;4972415;28;20043;-86
2023/10/12 15:00:36;;;;;;;10.80;2.70;;;;;;;;;;4970455;28;20446;-87
2023/10/12 15:03:02;;;;;;;13.25;3.13;;;;;;;;;;4979039;28;20491;-86
2023/10/12 15:05:32;;;;;;;10.95;3.33;;;;;;;;;;4972273;28;20047;-84
2023/10/12 15:07:58;;;;;;;12.98;3.08;;;;;;;;;;4969326;28;20039;-83
2023/10/12 15:10:27;;;;;;;9.50;3.20;;;;;;;;;;4971537;28;20534;-84
2023/10/12 15:12:56;;;;;;;7.40;2.90;;;;;;;;;;4972142;28;20098;-83
2023/10/12 15:15:25;;;;;;;13.85;3.70;;;;;;;;;;4969089;28;20104;-84
2023/10/12 15:17:54;;;;;;;10.73;4.00;;;;;;;;;;4964455;28;20139;-84
2023/10/12 15:20:26;;;;;;;10.43;2.95;;;;;;;;;;4971926;28;20097;-83
2023/10/12 15:22:55;;;;;;;12.43;3.15;;;;;;;;;;4971134;28;20054;-85
2023/10/12 15:25:21;;;;;;;9.30;3.38;;;;;;;;;;4972443;28;20061;-85
2023/10/12 15:27:49;;;;;;;9.10;3.78;;;;;;;;;;4964896;28;20129;-85
2023/10/12 15:30:16;;;;;;;8.85;2.72;;;;;;;;;;4971276;28;20054;-85
2023/10/12 15:32:42;;;;;;;11.27;2.97;;;;;;;;;;4961805;28;20217;-83
2023/10/12 15:35:12;;;;;;;10.18;2.90;;;;;;;;;;4963426;28;20051;-85
2023/10/12 15:37:40;;;;;;;10.27;3.15;;;;;;;;;;4970480;28;20047;-81
2023/10/12 15:40:09;;;;;;;9.25;2.72;;;;;;;;;;4968044;28;20053;-80
2023/10/12 15:42:35;;;;;;;10.98;3.20;;;;;;;;;;4970641;28;20066;-81
2023/10/12 15:45:02;;;;;;;10.43;3.00;;;;;;;;;;4972714;28;20101;-81
2023/10/12 15:47:30;;;;;;;11.90;3.60;;;;;;;;;;4971213;28;20177;-81
2023/10/12 15:49:58;;;;;;;10.63;3.28;;;;;;;;;;4970121;28;20680;-82
2023/10/12 15:52:25;;;;;;;12.15;4.45;;;;;;;;;;4967169;28;20078;-86
2023/10/12 15:54:51;;;;;;;11.95;3.47;;;;;;;;;;4971558;28;20078;-83
2023/10/12 15:57:17;;;;;;;9.52;3.67;;;;;;;;;;4979870;28;20046;-84
2023/10/12 15:59:44;;;;;;;13.25;3.45;;;;;;;;;;4980357;28;20047;-84
2023/10/12 16:02:10;;;;;;;12.95;4.60;;;;;;;;;;4970252;28;20490;-83
2023/10/12 16:04:37;;;;;;;13.80;4.10;;;;;;;;;;4969836;28;20030;-84
2023/10/12 16:07:05;;;;;;;10.40;4.18;;;;;;;;;;4969366;28;20053;-83
2023/10/12 16:09:36;;;;;;;12.02;4.35;;;;;;;;;;4968162;28;20047;-86
2023/10/12 16:12:03;;;;;;;13.15;4.00;;;;;;;;;;4970601;28;20058;-85
2023/10/12 16:14:29;;;;;;;11.35;4.05;;;;;;;;;;4970284;28;20057;-88
2023/10/12 16:16:55;;;;;;;15.52;5.07;;;;;;;;;;4969513;28;20491;-88
2023/10/12 16:19:21;;;;;;;12.90;4.20;;;;;;;;;;4968764;28;20105;-88
2023/10/12 16:21:47;;;;;;;13.48;3.78;;;;;;;;;;4970425;28;20051;-88
2023/10/12 16:24:13;;;;;;;6.10;3.40;;;;;;;;;;4971282;28;20540;-88
2023/10/12 16:26:39;;;;;;;10.05;4.05;;;;;;;;;;4965850;28;20822;-88
2023/10/12 16:29:11;;;;;;;13.20;4.10;;;;;;;;;;4972217;28;20398;-87
2023/10/12 16:31:37;;;;;;;20.02;10.80;;;;;;;;;;4973594;28;20050;-89
2023/10/12 16:34:06;;;;;;;10.23;4.20;;;;;;;;;;4978951;28;20134;-88
2023/10/12 16:36:32;;;;;;;9.70;3.63;;;;;;;;;;4978764;28;20166;-90
2023/10/12 16:39:03;;;;;;;13.43;6.40;;;;;;;;;;4970339;28;20130;-89
2023/10/12 16:41:29;;;;;;;10.82;4.00;;;;;;;;;;4970064;28;20233;-87
2023/10/12 16:43:55;;;;;;;11.73;3.85;;;;;;;;;;4971042;28;20055;-84
2023/10/12 16:46:23;;;;;;;14.32;4.35;;;;;;;;;;4971032;28;20039;-83
2023/10/12 16:48:49;;;;;;;13.10;4.05;;;;;;;;;;4971414;28;20063;-86
2023/10/12 16:51:16;;;;;;;11.63;4.30;;;;;;;;;;4980098;28;20136;-86
2023/10/12 16:53:42;;;;;;;12.27;4.97;;;;;;;;;;4990462;28;20089;-88
2023/10/12 16:56:12;;;;;;;11.52;4.60;;;;;;;;;;4961039;28;20058;-87
2023/10/12 16:58:40;;;;;;;21.83;9.02;;;;;;;;;;4976833;28;20051;-84
2023/10/12 17:01:06;;;;;;;12.27;5.00;;;;;;;;;;4998014;28;20050;-85
2023/10/12 17:03:35;;;;;;;10.35;4.68;;;;;;;;;;4965042;28;20046;-88
2023/10/12 17:06:02;;;;;;;12.30;4.32;;;;;;;;;;4968609;28;20055;-84
2023/10/12 17:08:32;;;;;;;13.40;4.07;;;;;;;;;;4968481;28;20054;-85
2023/10/12 17:10:58;;;;;;;12.82;4.63;;;;;;;;;;4962492;28;20159;-87
2023/10/12 17:13:26;;;;;;;12.18;4.55;;;;;;;;;;4970068;28;20392;-85
2023/10/12 17:15:52;;;;;;;11.43;5.80;;;;;;;;;;4964878;28;20072;-84